This is the latest recevied weather packets stored in our database for station/object BAGASKAR. If no packets are shown the sender has not sent any weather packets the latest 10 day(s).
| Time | Temp. | Humidity | Pressure | Rain* | Wind** | Luminosity | Snow |
|---|---|---|---|---|---|---|---|
| 1777673221 | 5° C | 100% | 1014.8 hPa | - | - | - | - |
| 1777672021 | 5° C | 100% | 1015.1 hPa | - | - | - | - |
| 1777670821 | 5° C | 100% | 1015.1 hPa | - | - | - | - |
| 1777669620 | 5.56° C | 100% | 1015.3 hPa | - | - | - | - |
| 1777668420 | 5.56° C | 100% | 1015.4 hPa | - | - | - | - |
| 1777667221 | 5° C | 100% | 1015.7 hPa | - | - | - | - |
| 1777666020 | 5.56° C | 100% | 1015.8 hPa | - | - | - | - |
| 1777664820 | 5.56° C | 100% | 1016 hPa | - | - | - | - |
| 1777663620 | 5.56° C | 100% | 1016.2 hPa | - | - | - | - |
| 1777662421 | 6.11° C | 100% | 1016.2 hPa | - | - | - | - |
| 1777661221 | 6.11° C | 100% | 1016.5 hPa | - | - | - | - |
| 1777660020 | 6.67° C | 100% | 1016.6 hPa | - | - | - | - |
| 1777658820 | 7.22° C | 97% | 1016.6 hPa | - | - | - | - |
| 1777657620 | 8.33° C | 90% | 1016.7 hPa | - | - | - | - |
| 1777656420 | 8.33° C | 89% | 1016.8 hPa | - | - | - | - |
| 1777655220 | 8.33° C | 92% | 1016.9 hPa | - | - | - | - |
| 1777654020 | 8.33° C | 93% | 1017.1 hPa | - | - | - | - |
| 1777652820 | 8.89° C | 87% | 1017.3 hPa | - | - | - | - |
| 1777651620 | 8.89° C | 87% | 1017.5 hPa | - | - | - | - |
| 1777650420 | 9.44° C | 83% | 1017.7 hPa | - | - | - | - |
| 1777649220 | 9.44° C | 84% | 1017.7 hPa | - | - | - | - |
| 1777648019 | 9.44° C | 81% | 1017.9 hPa | - | - | - | - |
| 1777646819 | 9.44° C | 83% | 1018 hPa | - | - | - | - |
| 1777645620 | 10.56° C | 77% | 1018.1 hPa | - | - | - | - |
| 1777644419 | 10.56° C | 77% | 1018.3 hPa | - | - | - | - |
* Rain since midnight (hover to see other rain measurements)
** Current wind speed in m/s (hover to see current wind gust speed)